Dorking, United Kingdom
Current Conditions -  °F | °C
As of 12:50 PM on Tuesday 21 Oct 2014 (Local Time) from EGKK Reporting Station
Scattered Clouds Scattered Clouds  
Wind Chill: 13°   Ceiling: Unl
Heat Index: 13°   Visibility: 6mi
Dew Point:   Wind: 21mph
Humidity: 54%   Direction: 290°WNW
Pressure: 29.71"   Gusts: NA
Location:  51.23°N, 0.33°W
Report Text: EGKK 211150Z 29018KT 9999 SCT040 13/04 Q1006
Loading
Personal Weather Stations






























Interactive Weather Map
Tropical Storm Tracking
New forecast layout! Learn more

10-Day Weather Forecast

Advertisements
Track Severe Weather on mobile